sensor_id;sensor_type;location;lat;lon;timestamp;pressure;altitude;pressure_sealevel;temperature;humidity
52291;BME280;39663;45.432;28.050;2023-04-19T00:00:14;100900.38;;;12.75;46.07
52291;BME280;39663;45.432;28.050;2023-04-19T00:00:46;100900.27;;;13.27;46.33
52291;BME280;39663;45.432;28.050;2023-04-19T00:01:17;100899.28;;;12.85;46.72
52291;BME280;39663;45.432;28.050;2023-04-19T00:01:49;100901.17;;;12.86;46.42
52291;BME280;39663;45.432;28.050;2023-04-19T00:02:20;100898.07;;;13.03;46.56
52291;BME280;39663;45.432;28.050;2023-04-19T00:02:52;100896.31;;;13.19;46.08
52291;BME280;39663;45.432;28.050;2023-04-19T00:03:23;100898.20;;;13.23;45.78
52291;BME280;39663;45.432;28.050;2023-04-19T00:03:55;100898.33;;;13.43;46.02
52291;BME280;39663;45.432;28.050;2023-04-19T00:04:27;100897.85;;;13.44;45.83
52291;BME280;39663;45.432;28.050;2023-04-19T00:04:58;100895.88;;;13.35;45.80
52291;BME280;39663;45.432;28.050;2023-04-19T00:05:30;100896.80;;;12.73;46.05
52291;BME280;39663;45.432;28.050;2023-04-19T00:06:01;100897.99;;;12.99;46.59
52291;BME280;39663;45.432;28.050;2023-04-19T00:06:33;100896.00;;;13.26;45.60
52291;BME280;39663;45.432;28.050;2023-04-19T00:07:05;100897.61;;;13.07;45.82
52291;BME280;39663;45.432;28.050;2023-04-19T00:07:36;100896.94;;;13.25;45.83
52291;BME280;39663;45.432;28.050;2023-04-19T00:08:08;100895.86;;;13.52;45.08
52291;BME280;39663;45.432;28.050;2023-04-19T00:08:40;100897.95;;;13.28;45.47
52291;BME280;39663;45.432;28.050;2023-04-19T00:09:11;100896.32;;;13.06;46.33
52291;BME280;39663;45.432;28.050;2023-04-19T00:09:43;100899.62;;;12.84;47.20
52291;BME280;39663;45.432;28.050;2023-04-19T00:10:15;100895.13;;;12.84;46.68
52291;BME280;39663;45.432;28.050;2023-04-19T00:10:46;100900.84;;;13.03;45.84
52291;BME280;39663;45.432;28.050;2023-04-19T00:11:18;100898.09;;;12.59;46.60
52291;BME280;39663;45.432;28.050;2023-04-19T00:11:50;100900.35;;;12.99;45.99
52291;BME280;39663;45.432;28.050;2023-04-19T00:12:22;100900.25;;;12.69;46.82
52291;BME280;39663;45.432;28.050;2023-04-19T00:12:54;100901.68;;;12.07;47.51
52291;BME280;39663;45.432;28.050;2023-04-19T00:13:25;100901.74;;;12.64;47.17
52291;BME280;39663;45.432;28.050;2023-04-19T00:13:57;100899.97;;;12.72;46.18
52291;BME280;39663;45.432;28.050;2023-04-19T00:14:28;100902.53;;;12.53;46.37
52291;BME280;39663;45.432;28.050;2023-04-19T00:15:00;100903.31;;;12.95;46.90
52291;BME280;39663;45.432;28.050;2023-04-19T00:15:32;100904.73;;;12.62;47.13
52291;BME280;39663;45.432;28.050;2023-04-19T00:16:05;100904.77;;;12.29;47.36
52291;BME280;39663;45.432;28.050;2023-04-19T00:16:36;100902.47;;;12.44;47.15
52291;BME280;39663;45.432;28.050;2023-04-19T00:17:08;100903.30;;;12.64;46.40
52291;BME280;39663;45.432;28.050;2023-04-19T00:17:39;100903.58;;;12.79;46.46
52291;BME280;39663;45.432;28.050;2023-04-19T00:18:11;100905.36;;;12.73;46.65
52291;BME280;39663;45.432;28.050;2023-04-19T00:18:43;100904.06;;;12.95;46.74
52291;BME280;39663;45.432;28.050;2023-04-19T00:19:14;100906.17;;;12.98;46.74
52291;BME280;39663;45.432;28.050;2023-04-19T00:19:46;100902.37;;;12.12;46.30
52291;BME280;39663;45.432;28.050;2023-04-19T00:20:19;100906.06;;;12.72;45.97
52291;BME280;39663;45.432;28.050;2023-04-19T00:20:50;100900.76;;;12.75;45.99
52291;BME280;39663;45.432;28.050;2023-04-19T00:21:22;100904.82;;;12.77;46.46
52291;BME280;39663;45.432;28.050;2023-04-19T00:21:54;100902.54;;;12.84;46.06
52291;BME280;39663;45.432;28.050;2023-04-19T00:22:25;100901.33;;;12.57;46.45
52291;BME280;39663;45.432;28.050;2023-04-19T00:22:57;100902.85;;;12.26;46.90
52291;BME280;39663;45.432;28.050;2023-04-19T00:23:29;100901.21;;;11.82;46.75
52291;BME280;39663;45.432;28.050;2023-04-19T00:24:02;100898.84;;;11.61;45.98
52291;BME280;39663;45.432;28.050;2023-04-19T00:24:34;100901.91;;;12.39;46.14
52291;BME280;39663;45.432;28.050;2023-04-19T00:25:06;100898.76;;;12.70;46.17
52291;BME280;39663;45.432;28.050;2023-04-19T00:25:38;100901.97;;;12.47;46.52
52291;BME280;39663;45.432;28.050;2023-04-19T00:26:09;100898.04;;;12.55;46.47
52291;BME280;39663;45.432;28.050;2023-04-19T00:26:41;100897.28;;;12.49;46.61
52291;BME280;39663;45.432;28.050;2023-04-19T00:27:12;100897.76;;;12.87;46.39
52291;BME280;39663;45.432;28.050;2023-04-19T00:27:44;100898.65;;;12.79;45.94
52291;BME280;39663;45.432;28.050;2023-04-19T00:28:16;100896.67;;;12.82;46.09
52291;BME280;39663;45.432;28.050;2023-04-19T00:28:47;100898.36;;;12.80;45.97
52291;BME280;39663;45.432;28.050;2023-04-19T00:29:19;100897.99;;;13.09;45.84
52291;BME280;39663;45.432;28.050;2023-04-19T00:29:50;100896.14;;;12.71;47.02
52291;BME280;39663;45.432;28.050;2023-04-19T00:30:22;100897.53;;;12.48;46.69
52291;BME280;39663;45.432;28.050;2023-04-19T00:30:53;100898.50;;;11.90;48.03
52291;BME280;39663;45.432;28.050;2023-04-19T00:31:25;100897.38;;;12.32;47.62
52291;BME280;39663;45.432;28.050;2023-04-19T00:31:56;100897.95;;;12.63;47.25
52291;BME280;39663;45.432;28.050;2023-04-19T00:32:28;100897.28;;;12.75;46.93
52291;BME280;39663;45.432;28.050;2023-04-19T00:33:00;100898.85;;;12.89;46.65
52291;BME280;39663;45.432;28.050;2023-04-19T00:33:32;100900.15;;;12.60;46.85
52291;BME280;39663;45.432;28.050;2023-04-19T00:34:03;100899.63;;;12.77;46.81
52291;BME280;39663;45.432;28.050;2023-04-19T00:34:35;100900.21;;;12.83;46.38
52291;BME280;39663;45.432;28.050;2023-04-19T00:35:07;100898.73;;;12.35;46.95
52291;BME280;39663;45.432;28.050;2023-04-19T00:35:39;100900.60;;;12.79;46.96
52291;BME280;39663;45.432;28.050;2023-04-19T00:36:11;100899.75;;;12.50;46.91
52291;BME280;39663;45.432;28.050;2023-04-19T00:36:43;100900.13;;;12.36;47.10
52291;BME280;39663;45.432;28.050;2023-04-19T00:37:14;100900.39;;;12.34;47.35
52291;BME280;39663;45.432;28.050;2023-04-19T00:37:46;100895.69;;;12.71;46.58
52291;BME280;39663;45.432;28.050;2023-04-19T00:38:17;100896.65;;;12.86;46.52
52291;BME280;39663;45.432;28.050;2023-04-19T00:38:49;100894.82;;;13.02;46.56
52291;BME280;39663;45.432;28.050;2023-04-19T00:39:20;100893.84;;;13.03;46.46
52291;BME280;39663;45.432;28.050;2023-04-19T00:39:52;100891.41;;;13.04;46.30
52291;BME280;39663;45.432;28.050;2023-04-19T00:40:24;100889.84;;;12.85;46.84
52291;BME280;39663;45.432;28.050;2023-04-19T00:40:55;100888.14;;;13.07;46.39
52291;BME280;39663;45.432;28.050;2023-04-19T00:41:27;100890.09;;;13.20;46.30
52291;BME280;39663;45.432;28.050;2023-04-19T00:41:58;100884.67;;;12.99;46.16
52291;BME280;39663;45.432;28.050;2023-04-19T00:42:30;100883.11;;;13.32;45.78
52291;BME280;39663;45.432;28.050;2023-04-19T00:43:01;100884.51;;;13.24;46.25
52291;BME280;39663;45.432;28.050;2023-04-19T00:43:33;100882.21;;;13.13;46.25
52291;BME280;39663;45.432;28.050;2023-04-19T00:44:05;100883.09;;;13.25;45.87
52291;BME280;39663;45.432;28.050;2023-04-19T00:44:36;100881.88;;;13.12;45.90
52291;BME280;39663;45.432;28.050;2023-04-19T00:45:10;100881.36;;;13.48;46.09
52291;BME280;39663;45.432;28.050;2023-04-19T00:45:41;100878.22;;;13.26;45.52
52291;BME280;39663;45.432;28.050;2023-04-19T00:46:14;100877.22;;;13.08;45.56
52291;BME280;39663;45.432;28.050;2023-04-19T00:46:46;100878.83;;;13.25;45.36
52291;BME280;39663;45.432;28.050;2023-04-19T00:47:17;100874.50;;;13.26;45.87
52291;BME280;39663;45.432;28.050;2023-04-19T00:47:48;100871.95;;;13.02;46.09
52291;BME280;39663;45.432;28.050;2023-04-19T00:48:20;100876.14;;;13.38;45.92
52291;BME280;39663;45.432;28.050;2023-04-19T00:48:52;100874.00;;;13.34;45.68
52291;BME280;39663;45.432;28.050;2023-04-19T00:49:25;100874.15;;;13.19;46.22
52291;BME280;39663;45.432;28.050;2023-04-19T00:49:57;100872.20;;;13.44;45.56
52291;BME280;39663;45.432;28.050;2023-04-19T00:50:28;100871.48;;;13.55;45.80
52291;BME280;39663;45.432;28.050;2023-04-19T00:51:00;100870.33;;;13.52;45.74
52291;BME280;39663;45.432;28.050;2023-04-19T00:51:32;100870.63;;;13.42;45.55
52291;BME280;39663;45.432;28.050;2023-04-19T00:52:04;100869.45;;;13.27;45.74
52291;BME280;39663;45.432;28.050;2023-04-19T00:52:36;100868.26;;;13.32;45.50
52291;BME280;39663;45.432;28.050;2023-04-19T00:53:07;100869.78;;;13.49;45.57
52291;BME280;39663;45.432;28.050;2023-04-19T00:53:40;100870.23;;;12.91;46.64
52291;BME280;39663;45.432;28.050;2023-04-19T00:54:12;100873.76;;;13.10;46.37
52291;BME280;39663;45.432;28.050;2023-04-19T00:54:44;100872.02;;;12.99;46.00
52291;BME280;39663;45.432;28.050;2023-04-19T00:55:16;100872.96;;;13.26;46.29
52291;BME280;39663;45.432;28.050;2023-04-19T00:55:48;100872.56;;;12.91;46.59
52291;BME280;39663;45.432;28.050;2023-04-19T00:56:21;100872.05;;;12.78;46.91
52291;BME280;39663;45.432;28.050;2023-04-19T00:56:52;100874.94;;;13.00;46.70
52291;BME280;39663;45.432;28.050;2023-04-19T00:57:24;100874.32;;;12.91;46.44
52291;BME280;39663;45.432;28.050;2023-04-19T00:57:56;100876.93;;;12.87;46.62
52291;BME280;39663;45.432;28.050;2023-04-19T00:58:28;100878.17;;;13.27;46.40
52291;BME280;39663;45.432;28.050;2023-04-19T00:59:05;100879.87;;;13.43;46.14
52291;BME280;39663;45.432;28.050;2023-04-19T00:59:42;100876.88;;;13.34;46.05
52291;BME280;39663;45.432;28.050;2023-04-19T01:00:14;100884.07;;;13.26;45.60
52291;BME280;39663;45.432;28.050;2023-04-19T01:00:46;100882.87;;;13.38;45.92
52291;BME280;39663;45.432;28.050;2023-04-19T01:01:32;100881.96;;;13.50;45.58
52291;BME280;39663;45.432;28.050;2023-04-19T01:02:04;100882.80;;;13.06;46.21
52291;BME280;39663;45.432;28.050;2023-04-19T01:02:35;100882.70;;;13.37;46.22
52291;BME280;39663;45.432;28.050;2023-04-19T01:03:06;100883.92;;;12.98;45.98
52291;BME280;39663;45.432;28.050;2023-04-19T01:03:38;100881.97;;;12.44;46.92
52291;BME280;39663;45.432;28.050;2023-04-19T01:04:10;100882.78;;;12.92;46.75
52291;BME280;39663;45.432;28.050;2023-04-19T01:04:41;100880.49;;;13.15;46.48
52291;BME280;39663;45.432;28.050;2023-04-19T01:05:13;100881.02;;;13.22;46.30
52291;BME280;39663;45.432;28.050;2023-04-19T01:05:45;100875.49;;;12.83;46.38
52291;BME280;39663;45.432;28.050;2023-04-19T01:06:17;100878.85;;;12.92;46.66
52291;BME280;39663;45.432;28.050;2023-04-19T01:06:49;100875.15;;;12.55;47.27
52291;BME280;39663;45.432;28.050;2023-04-19T01:07:20;100879.41;;;12.43;47.04
52291;BME280;39663;45.432;28.050;2023-04-19T01:07:52;100875.29;;;11.96;48.06
52291;BME280;39663;45.432;28.050;2023-04-19T01:08:23;100875.65;;;12.09;47.82
52291;BME280;39663;45.432;28.050;2023-04-19T01:08:55;100875.25;;;12.34;47.71
52291;BME280;39663;45.432;28.050;2023-04-19T01:09:26;100876.09;;;12.73;47.49
52291;BME280;39663;45.432;28.050;2023-04-19T01:09:58;100876.48;;;12.00;48.52
52291;BME280;39663;45.432;28.050;2023-04-19T01:10:29;100874.43;;;12.22;47.90
52291;BME280;39663;45.432;28.050;2023-04-19T01:11:01;100872.71;;;12.33;47.77
52291;BME280;39663;45.432;28.050;2023-04-19T01:11:33;100872.89;;;12.50;47.72
52291;BME280;39663;45.432;28.050;2023-04-19T01:12:05;100873.68;;;12.71;47.51
52291;BME280;39663;45.432;28.050;2023-04-19T01:12:37;100872.89;;;12.92;47.52
52291;BME280;39663;45.432;28.050;2023-04-19T01:13:08;100873.44;;;13.06;46.84
52291;BME280;39663;45.432;28.050;2023-04-19T01:13:40;100876.13;;;12.90;47.03
52291;BME280;39663;45.432;28.050;2023-04-19T01:14:11;100875.75;;;12.85;47.20
52291;BME280;39663;45.432;28.050;2023-04-19T01:14:43;100874.49;;;13.01;47.28
52291;BME280;39663;45.432;28.050;2023-04-19T01:15:14;100874.36;;;12.82;47.22
52291;BME280;39663;45.432;28.050;2023-04-19T01:15:46;100875.34;;;12.89;46.96
52291;BME280;39663;45.432;28.050;2023-04-19T01:16:18;100873.83;;;12.91;46.76
52291;BME280;39663;45.432;28.050;2023-04-19T01:16:49;100879.26;;;12.95;46.86
52291;BME280;39663;45.432;28.050;2023-04-19T01:17:21;100873.63;;;13.01;46.89
52291;BME280;39663;45.432;28.050;2023-04-19T01:17:52;100871.44;;;12.77;47.28
52291;BME280;39663;45.432;28.050;2023-04-19T01:18:24;100874.13;;;12.60;47.61
52291;BME280;39663;45.432;28.050;2023-04-19T01:18:55;100874.17;;;12.29;47.43
52291;BME280;39663;45.432;28.050;2023-04-19T01:19:27;100873.00;;;12.53;47.66
52291;BME280;39663;45.432;28.050;2023-04-19T01:19:59;100870.90;;;12.49;47.76
52291;BME280;39663;45.432;28.050;2023-04-19T01:20:30;100868.03;;;12.06;48.19
52291;BME280;39663;45.432;28.050;2023-04-19T01:21:02;100869.66;;;12.05;48.41
52291;BME280;39663;45.432;28.050;2023-04-19T01:21:36;100871.91;;;12.44;48.25
52291;BME280;39663;45.432;28.050;2023-04-19T01:22:08;100868.87;;;12.51;48.04
52291;BME280;39663;45.432;28.050;2023-04-19T01:22:40;100864.22;;;12.68;47.27
52291;BME280;39663;45.432;28.050;2023-04-19T01:23:12;100865.94;;;12.69;47.83
52291;BME280;39663;45.432;28.050;2023-04-19T01:23:43;100862.58;;;12.71;47.54
52291;BME280;39663;45.432;28.050;2023-04-19T01:24:15;100861.39;;;12.81;47.22
52291;BME280;39663;45.432;28.050;2023-04-19T01:24:46;100858.64;;;12.79;47.18
52291;BME280;39663;45.432;28.050;2023-04-19T01:25:17;100861.89;;;12.94;47.37
52291;BME280;39663;45.432;28.050;2023-04-19T01:25:49;100862.27;;;12.97;47.03
52291;BME280;39663;45.432;28.050;2023-04-19T01:26:21;100862.42;;;13.25;46.90
52291;BME280;39663;45.432;28.050;2023-04-19T01:26:52;100862.78;;;12.89;47.20
52291;BME280;39663;45.432;28.050;2023-04-19T01:27:24;100864.83;;;13.10;46.66
52291;BME280;39663;45.432;28.050;2023-04-19T01:27:55;100861.31;;;12.95;47.11
52291;BME280;39663;45.432;28.050;2023-04-19T01:28:27;100865.07;;;12.99;46.77
52291;BME280;39663;45.432;28.050;2023-04-19T01:28:58;100866.90;;;13.05;46.97
52291;BME280;39663;45.432;28.050;2023-04-19T01:29:30;100862.67;;;12.77;47.55
52291;BME280;39663;45.432;28.050;2023-04-19T01:30:01;100866.29;;;12.88;47.49
52291;BME280;39663;45.432;28.050;2023-04-19T01:30:34;100868.15;;;13.18;46.95
52291;BME280;39663;45.432;28.050;2023-04-19T01:31:05;100869.02;;;13.10;47.12
52291;BME280;39663;45.432;28.050;2023-04-19T01:31:37;100868.00;;;12.86;47.17
52291;BME280;39663;45.432;28.050;2023-04-19T01:32:08;100868.85;;;13.18;46.87
52291;BME280;39663;45.432;28.050;2023-04-19T01:32:40;100869.01;;;12.96;46.74
52291;BME280;39663;45.432;28.050;2023-04-19T01:33:11;100874.06;;;12.66;47.40
52291;BME280;39663;45.432;28.050;2023-04-19T01:33:42;100871.17;;;12.60;47.67
52291;BME280;39663;45.432;28.050;2023-04-19T01:34:14;100870.07;;;12.90;47.59
52291;BME280;39663;45.432;28.050;2023-04-19T01:34:46;100868.08;;;12.45;47.52
52291;BME280;39663;45.432;28.050;2023-04-19T01:35:18;100867.38;;;12.63;47.72
52291;BME280;39663;45.432;28.050;2023-04-19T01:35:49;100866.18;;;12.43;47.70
52291;BME280;39663;45.432;28.050;2023-04-19T01:36:21;100866.54;;;12.58;47.72
52291;BME280;39663;45.432;28.050;2023-04-19T01:36:52;100864.49;;;12.87;47.87
52291;BME280;39663;45.432;28.050;2023-04-19T01:37:23;100865.31;;;12.88;47.67
52291;BME280;39663;45.432;28.050;2023-04-19T01:37:55;100862.47;;;12.83;47.40
52291;BME280;39663;45.432;28.050;2023-04-19T01:38:27;100861.57;;;12.99;46.45
52291;BME280;39663;45.432;28.050;2023-04-19T01:38:58;100860.91;;;12.78;46.92
52291;BME280;39663;45.432;28.050;2023-04-19T01:39:30;100856.07;;;12.51;47.44
52291;BME280;39663;45.432;28.050;2023-04-19T01:40:02;100854.87;;;12.50;47.36
52291;BME280;39663;45.432;28.050;2023-04-19T01:40:33;100853.25;;;12.22;47.53
52291;BME280;39663;45.432;28.050;2023-04-19T01:41:05;100856.22;;;12.61;47.49
52291;BME280;39663;45.432;28.050;2023-04-19T01:41:37;100852.21;;;12.62;47.63
52291;BME280;39663;45.432;28.050;2023-04-19T01:42:08;100850.02;;;12.62;47.22
52291;BME280;39663;45.432;28.050;2023-04-19T01:42:40;100853.02;;;12.89;47.33
52291;BME280;39663;45.432;28.050;2023-04-19T01:43:12;100849.38;;;12.72;47.38
52291;BME280;39663;45.432;28.050;2023-04-19T01:43:44;100847.48;;;12.67;47.55
52291;BME280;39663;45.432;28.050;2023-04-19T01:44:16;100846.96;;;12.95;47.37
52291;BME280;39663;45.432;28.050;2023-04-19T01:44:47;100849.43;;;12.93;47.32
52291;BME280;39663;45.432;28.050;2023-04-19T01:45:19;100847.31;;;12.89;47.20
52291;BME280;39663;45.432;28.050;2023-04-19T01:45:50;100851.85;;;12.64;47.32
52291;BME280;39663;45.432;28.050;2023-04-19T01:46:22;100848.08;;;12.33;47.49
52291;BME280;39663;45.432;28.050;2023-04-19T01:46:53;100849.73;;;11.93;48.69
52291;BME280;39663;45.432;28.050;2023-04-19T01:47:25;100846.85;;;12.22;48.20
52291;BME280;39663;45.432;28.050;2023-04-19T01:47:57;100849.88;;;12.42;48.56
52291;BME280;39663;45.432;28.050;2023-04-19T01:48:29;100849.24;;;12.49;48.25
52291;BME280;39663;45.432;28.050;2023-04-19T01:49:00;100847.78;;;12.12;48.60
52291;BME280;39663;45.432;28.050;2023-04-19T01:49:32;100851.56;;;12.07;48.83
52291;BME280;39663;45.432;28.050;2023-04-19T01:50:04;100848.86;;;12.21;48.29
52291;BME280;39663;45.432;28.050;2023-04-19T01:50:36;100852.22;;;11.96;48.98
52291;BME280;39663;45.432;28.050;2023-04-19T01:51:07;100850.53;;;12.46;48.43
52291;BME280;39663;45.432;28.050;2023-04-19T01:51:39;100847.99;;;12.50;48.67
52291;BME280;39663;45.432;28.050;2023-04-19T01:52:11;100852.05;;;12.48;48.14
52291;BME280;39663;45.432;28.050;2023-04-19T01:52:42;100847.56;;;12.25;48.07
52291;BME280;39663;45.432;28.050;2023-04-19T01:53:14;100854.27;;;12.47;48.25
52291;BME280;39663;45.432;28.050;2023-04-19T01:53:45;100850.19;;;12.18;48.19
52291;BME280;39663;45.432;28.050;2023-04-19T01:54:16;100848.57;;;12.33;48.36
52291;BME280;39663;45.432;28.050;2023-04-19T01:54:48;100848.18;;;12.66;48.34
52291;BME280;39663;45.432;28.050;2023-04-19T01:55:20;100849.02;;;12.75;47.59
52291;BME280;39663;45.432;28.050;2023-04-19T01:55:51;100851.03;;;12.80;47.85
52291;BME280;39663;45.432;28.050;2023-04-19T01:56:23;100849.07;;;12.55;47.79
52291;BME280;39663;45.432;28.050;2023-04-19T01:56:54;100846.64;;;12.64;47.81
52291;BME280;39663;45.432;28.050;2023-04-19T01:57:26;100846.49;;;12.80;47.45
52291;BME280;39663;45.432;28.050;2023-04-19T01:57:57;100842.75;;;12.48;47.92
52291;BME280;39663;45.432;28.050;2023-04-19T01:58:28;100845.08;;;12.65;48.18
52291;BME280;39663;45.432;28.050;2023-04-19T01:59:00;100845.33;;;11.79;48.93
52291;BME280;39663;45.432;28.050;2023-04-19T01:59:31;100845.24;;;12.16;49.18
52291;BME280;39663;45.432;28.050;2023-04-19T02:00:04;100843.30;;;12.29;48.52
52291;BME280;39663;45.432;28.050;2023-04-19T02:00:35;100843.37;;;12.26;48.47
52291;BME280;39663;45.432;28.050;2023-04-19T02:01:06;100841.91;;;12.28;48.20
52291;BME280;39663;45.432;28.050;2023-04-19T02:01:38;100841.52;;;12.42;48.19
52291;BME280;39663;45.432;28.050;2023-04-19T02:02:10;100843.74;;;12.58;48.11
52291;BME280;39663;45.432;28.050;2023-04-19T02:02:41;100840.98;;;12.89;47.82
52291;BME280;39663;45.432;28.050;2023-04-19T02:03:12;100844.07;;;12.82;47.69
52291;BME280;39663;45.432;28.050;2023-04-19T02:03:44;100843.90;;;12.92;47.46
52291;BME280;39663;45.432;28.050;2023-04-19T02:04:17;100837.02;;;12.08;48.70
52291;BME280;39663;45.432;28.050;2023-04-19T02:04:48;100838.76;;;12.60;48.30
52291;BME280;39663;45.432;28.050;2023-04-19T02:05:20;100838.82;;;12.83;47.95
52291;BME280;39663;45.432;28.050;2023-04-19T02:05:51;100837.80;;;12.77;47.05
52291;BME280;39663;45.432;28.050;2023-04-19T02:06:23;100839.27;;;13.00;47.50
52291;BME280;39663;45.432;28.050;2023-04-19T02:06:54;100838.91;;;12.87;47.45
52291;BME280;39663;45.432;28.050;2023-04-19T02:07:26;100839.70;;;12.76;47.20
52291;BME280;39663;45.432;28.050;2023-04-19T02:07:57;100836.52;;;12.95;46.90
52291;BME280;39663;45.432;28.050;2023-04-19T02:08:29;100836.16;;;12.87;47.32
52291;BME280;39663;45.432;28.050;2023-04-19T02:09:00;100836.96;;;12.96;47.07
52291;BME280;39663;45.432;28.050;2023-04-19T02:09:34;100836.12;;;12.61;47.37
52291;BME280;39663;45.432;28.050;2023-04-19T02:10:09;100837.35;;;12.03;48.83
52291;BME280;39663;45.432;28.050;2023-04-19T02:10:41;100839.20;;;12.43;48.15
52291;BME280;39663;45.432;28.050;2023-04-19T02:11:13;100839.39;;;12.64;47.72
52291;BME280;39663;45.432;28.050;2023-04-19T02:11:44;100842.50;;;12.48;47.80
52291;BME280;39663;45.432;28.050;2023-04-19T02:12:16;100842.39;;;12.75;47.20
52291;BME280;39663;45.432;28.050;2023-04-19T02:12:47;100841.30;;;12.24;48.22
52291;BME280;39663;45.432;28.050;2023-04-19T02:13:19;100844.42;;;12.71;48.19
52291;BME280;39663;45.432;28.050;2023-04-19T02:13:50;100840.40;;;12.42;48.29
52291;BME280;39663;45.432;28.050;2023-04-19T02:14:22;100846.38;;;12.60;47.78
52291;BME280;39663;45.432;28.050;2023-04-19T02:14:53;100846.82;;;12.56;48.09
52291;BME280;39663;45.432;28.050;2023-04-19T02:15:25;100842.09;;;12.63;47.55
52291;BME280;39663;45.432;28.050;2023-04-19T02:15:57;100841.75;;;12.73;47.31
52291;BME280;39663;45.432;28.050;2023-04-19T02:16:28;100842.95;;;12.42;48.14
52291;BME280;39663;45.432;28.050;2023-04-19T02:17:00;100842.57;;;11.69;48.38
52291;BME280;39663;45.432;28.050;2023-04-19T02:17:32;100843.33;;;12.09;48.45
52291;BME280;39663;45.432;28.050;2023-04-19T02:18:04;100842.64;;;12.16;47.83
52291;BME280;39663;45.432;28.050;2023-04-19T02:18:36;100841.30;;;11.60;48.75
52291;BME280;39663;45.432;28.050;2023-04-19T02:19:08;100842.76;;;11.95;48.87
52291;BME280;39663;45.432;28.050;2023-04-19T02:19:39;100839.15;;;12.07;48.13
52291;BME280;39663;45.432;28.050;2023-04-19T02:20:11;100840.44;;;12.22;48.11
52291;BME280;39663;45.432;28.050;2023-04-19T02:20:43;100837.06;;;12.04;48.36
52291;BME280;39663;45.432;28.050;2023-04-19T02:21:15;100839.10;;;11.82;48.57
52291;BME280;39663;45.432;28.050;2023-04-19T02:21:46;100841.17;;;12.17;48.08
52291;BME280;39663;45.432;28.050;2023-04-19T02:22:18;100836.32;;;11.89;48.82
52291;BME280;39663;45.432;28.050;2023-04-19T02:22:49;100839.06;;;11.61;49.21
52291;BME280;39663;45.432;28.050;2023-04-19T02:23:21;100838.16;;;11.81;49.18
52291;BME280;39663;45.432;28.050;2023-04-19T02:23:52;100836.18;;;11.65;49.21
52291;BME280;39663;45.432;28.050;2023-04-19T02:24:24;100835.17;;;12.15;48.91
52291;BME280;39663;45.432;28.050;2023-04-19T02:24:55;100836.03;;;12.29;48.60
52291;BME280;39663;45.432;28.050;2023-04-19T02:25:27;100834.26;;;12.70;47.90
52291;BME280;39663;45.432;28.050;2023-04-19T02:25:58;100836.22;;;12.57;48.17
52291;BME280;39663;45.432;28.050;2023-04-19T02:26:30;100834.27;;;12.67;48.38
52291;BME280;39663;45.432;28.050;2023-04-19T02:27:01;100833.77;;;12.32;48.01
52291;BME280;39663;45.432;28.050;2023-04-19T02:27:33;100837.11;;;12.41;48.12
52291;BME280;39663;45.432;28.050;2023-04-19T02:28:04;100836.19;;;12.60;47.97
52291;BME280;39663;45.432;28.050;2023-04-19T02:28:36;100833.82;;;12.43;48.14
52291;BME280;39663;45.432;28.050;2023-04-19T02:29:07;100831.78;;;12.51;48.36
52291;BME280;39663;45.432;28.050;2023-04-19T02:29:39;100830.16;;;12.24;48.29
52291;BME280;39663;45.432;28.050;2023-04-19T02:30:11;100836.10;;;11.84;49.02
52291;BME280;39663;45.432;28.050;2023-04-19T02:30:43;100835.51;;;11.54;49.22
52291;BME280;39663;45.432;28.050;2023-04-19T02:31:14;100837.61;;;11.30;50.43
52291;BME280;39663;45.432;28.050;2023-04-19T02:31:46;100832.49;;;11.53;50.27
52291;BME280;39663;45.432;28.050;2023-04-19T02:32:17;100832.06;;;11.30;50.49
52291;BME280;39663;45.432;28.050;2023-04-19T02:32:49;100831.28;;;11.38;49.97
52291;BME280;39663;45.432;28.050;2023-04-19T02:33:21;100831.32;;;11.54;50.19
52291;BME280;39663;45.432;28.050;2023-04-19T02:33:53;100831.03;;;11.83;49.63
52291;BME280;39663;45.432;28.050;2023-04-19T02:34:26;100829.34;;;11.81;49.30
52291;BME280;39663;45.432;28.050;2023-04-19T02:34:58;100832.28;;;11.91;49.59
52291;BME280;39663;45.432;28.050;2023-04-19T02:35:29;100828.56;;;12.02;49.61
52291;BME280;39663;45.432;28.050;2023-04-19T02:36:01;100834.97;;;12.26;49.33
52291;BME280;39663;45.432;28.050;2023-04-19T02:36:32;100833.28;;;12.38;48.39
52291;BME280;39663;45.432;28.050;2023-04-19T02:37:04;100834.86;;;12.22;48.42
52291;BME280;39663;45.432;28.050;2023-04-19T02:37:36;100829.96;;;12.31;48.32
52291;BME280;39663;45.432;28.050;2023-04-19T02:38:07;100833.45;;;12.11;49.09
52291;BME280;39663;45.432;28.050;2023-04-19T02:38:39;100832.82;;;12.24;48.90
52291;BME280;39663;45.432;28.050;2023-04-19T02:39:10;100832.90;;;12.40;48.53
52291;BME280;39663;45.432;28.050;2023-04-19T02:39:42;100834.29;;;12.43;48.41
52291;BME280;39663;45.432;28.050;2023-04-19T02:40:13;100831.58;;;12.51;47.97
52291;BME280;39663;45.432;28.050;2023-04-19T02:40:45;100831.96;;;12.39;48.39
52291;BME280;39663;45.432;28.050;2023-04-19T02:41:16;100830.55;;;12.41;48.20
52291;BME280;39663;45.432;28.050;2023-04-19T02:41:48;100831.99;;;12.52;48.24
52291;BME280;39663;45.432;28.050;2023-04-19T02:42:19;100833.91;;;12.35;48.11
52291;BME280;39663;45.432;28.050;2023-04-19T02:42:51;100833.82;;;12.69;47.88
52291;BME280;39663;45.432;28.050;2023-04-19T02:43:22;100832.98;;;13.00;47.81
52291;BME280;39663;45.432;28.050;2023-04-19T02:43:54;100831.32;;;12.91;47.08